Crystal Springs, North Dakota
Current Conditions -  °F | °C
As of 7:20 AM on Thursday 30 Oct 2014 (Local Time) from KJMS Reporting Station
Overcast Overcast  
Wind Chill: 23°   Ceiling: 1000
Heat Index: 34°   Visibility: 10mi
Dew Point: 33°   Wind: 18mph
Humidity: 96%   Direction: 360°N
Pressure: 30.11"   Gusts: 24mph
Location:  46.8928°N, 99.3208°W
Report Text: KJMS 301220Z AUTO 36016G21KT 10SM BKN010 OVC036 01/01 A3011 RMK AO2 T00110006
Loading
Personal Weather Stations






























Interactive Weather Map New forecast layout! Learn more

10-Day Weather Forecast

Advertisements
Track Severe Weather on mobile